Weather at Philadelphia International Airport

Public forecast

Using degrees Fahrenheit for public forecast. Weather courtesy of forecast.io.

Current aviation weather report (METAR) for Philadelphia International Airport

Retrieved 2021/10/21 04:54 UTC (25 minutes ago):

KPHL 210454Z 25005KT 10SM FEW280 16/11 A3006 RMK AO2 SLP179 T01560106 402440117

Aviation forecast (TAF) for Philadelphia International Airport

Retrieved 2021-10-21 00:27 UTC (5 hours ago):

TAF KPHL 202320Z 2100/2206 25008KT P6SM FEW250 FM210200 VRB03KT P6SM FEW200 FM211400 22008KT P6SM FEW250